createdAt,value
2018-07-09T00:00:34.686Z,46.30
2018-07-09T00:03:11.336Z,46.20
2018-07-09T00:05:42.171Z,46.90
2018-07-09T00:08:11.747Z,47.10
2018-07-09T00:10:50.370Z,47.10
2018-07-09T00:13:18.855Z,47.10
2018-07-09T00:15:47.263Z,47.30
2018-07-09T00:18:15.918Z,47.70
2018-07-09T00:20:44.602Z,47.70
2018-07-09T00:23:16.050Z,48.00
2018-07-09T00:25:45.324Z,48.00
2018-07-09T00:28:13.894Z,48.20
2018-07-09T00:30:42.287Z,48.10
2018-07-09T00:33:10.696Z,48.10
2018-07-09T00:35:39.075Z,48.80
2018-07-09T00:38:07.551Z,48.20
2018-07-09T00:40:35.932Z,48.20
2018-07-09T00:43:04.335Z,48.20
2018-07-09T00:45:32.731Z,48.40
2018-07-09T00:48:01.194Z,48.60
2018-07-09T00:50:29.793Z,48.60
2018-07-09T00:52:58.234Z,48.70
2018-07-09T00:55:26.634Z,48.80
2018-07-09T00:57:55.053Z,48.90
2018-07-09T01:00:23.466Z,49.40
2018-07-09T01:02:51.903Z,49.00
2018-07-09T01:05:20.318Z,48.90
2018-07-09T01:07:48.714Z,49.10
2018-07-09T01:10:18.063Z,49.30
2018-07-09T01:12:46.613Z,49.10
2018-07-09T01:15:14.966Z,49.20
2018-07-09T01:17:43.436Z,49.10
2018-07-09T01:20:12.054Z,49.00
2018-07-09T01:22:40.455Z,49.40
2018-07-09T01:25:08.793Z,49.10
2018-07-09T01:27:37.510Z,49.70
2018-07-09T01:30:13.247Z,49.70
2018-07-09T01:32:41.893Z,49.30
2018-07-09T01:35:11.325Z,49.50
2018-07-09T01:37:40.323Z,49.70
2018-07-09T01:40:08.989Z,49.90
2018-07-09T01:42:37.622Z,49.80
2018-07-09T01:45:06.033Z,50.50
2018-07-09T01:47:34.451Z,50.20
2018-07-09T01:50:02.852Z,50.30
2018-07-09T01:52:31.558Z,50.00
2018-07-09T01:55:00.306Z,50.10
2018-07-09T01:59:56.752Z,49.90
2018-07-09T02:02:25.346Z,50.40
2018-07-09T02:04:53.730Z,50.30
2018-07-09T02:07:22.059Z,50.40
2018-07-09T02:09:50.857Z,50.50
2018-07-09T02:12:19.318Z,50.00
2018-07-09T02:14:47.830Z,50.40
2018-07-09T02:17:16.221Z,50.30
2018-07-09T02:19:44.611Z,49.80
2018-07-09T02:22:13.048Z,50.00
2018-07-09T02:24:41.419Z,49.90
2018-07-09T02:27:09.803Z,50.40
2018-07-09T02:29:38.242Z,50.50
2018-07-09T02:32:13.131Z,50.70
2018-07-09T02:34:41.532Z,50.50
2018-07-09T02:37:09.860Z,50.50
2018-07-09T02:39:38.257Z,50.70
2018-07-09T02:42:06.636Z,50.60
2018-07-09T02:44:35.041Z,50.50
2018-07-09T02:47:03.388Z,50.50
2018-07-09T02:49:31.772Z,50.40
2018-07-09T02:52:00.175Z,50.70
2018-07-09T02:54:28.537Z,50.40
2018-07-09T02:56:56.928Z,50.70
2018-07-09T02:59:25.337Z,50.40
2018-07-09T03:01:53.723Z,50.60
2018-07-09T03:04:22.296Z,50.80
2018-07-09T03:06:50.663Z,51.00
2018-07-09T03:09:19.053Z,51.40
2018-07-09T03:11:47.420Z,51.40
2018-07-09T03:14:15.807Z,51.40
2018-07-09T03:16:44.171Z,51.30
2018-07-09T03:19:12.576Z,51.60
2018-07-09T03:21:40.936Z,51.80
2018-07-09T03:24:09.358Z,52.10
2018-07-09T03:26:37.702Z,51.80
2018-07-09T03:29:06.173Z,51.60
2018-07-09T03:31:34.539Z,52.20
2018-07-09T03:34:02.907Z,51.80
2018-07-09T03:36:31.330Z,52.10
2018-07-09T03:41:27.748Z,52.00
2018-07-09T03:43:56.135Z,52.00
2018-07-09T03:46:24.704Z,52.00
2018-07-09T03:48:53.069Z,52.00
2018-07-09T03:51:21.453Z,52.40
2018-07-09T03:53:49.870Z,53.10
2018-07-09T03:56:18.218Z,52.00
2018-07-09T03:58:46.649Z,51.80
2018-07-09T04:01:15.031Z,52.40
2018-07-09T04:03:44.015Z,51.90
2018-07-09T04:06:12.394Z,51.80
2018-07-09T04:08:40.743Z,52.50
2018-07-09T04:11:09.106Z,52.00
2018-07-09T04:13:37.444Z,52.20
2018-07-09T04:16:05.857Z,52.00
2018-07-09T04:18:34.218Z,52.50
2018-07-09T04:21:02.663Z,52.20
2018-07-09T04:26:00.040Z,52.10
2018-07-09T04:28:28.448Z,52.10
2018-07-09T04:30:56.798Z,52.10
2018-07-09T04:33:25.156Z,52.40
2018-07-09T04:35:53.562Z,52.20
2018-07-09T04:38:21.937Z,52.30
2018-07-09T04:40:50.318Z,52.10
2018-07-09T04:43:18.673Z,52.30
2018-07-09T04:45:47.079Z,52.40
2018-07-09T04:48:15.434Z,52.20
2018-07-09T04:50:43.859Z,52.00
2018-07-09T04:53:12.219Z,52.50
2018-07-09T04:55:40.606Z,52.00
2018-07-09T04:58:09.008Z,52.30
2018-07-09T05:00:37.390Z,52.00
2018-07-09T05:03:06.601Z,52.10
2018-07-09T05:05:34.990Z,51.60
2018-07-09T05:08:03.438Z,51.80
2018-07-09T05:10:31.907Z,51.50
2018-07-09T05:13:00.316Z,51.50
2018-07-09T05:15:28.742Z,51.50
2018-07-09T05:17:57.120Z,51.40
2018-07-09T05:20:25.532Z,51.10
2018-07-09T05:22:54.511Z,51.30
2018-07-09T05:25:22.922Z,51.10
2018-07-09T05:27:51.554Z,51.00
2018-07-09T05:30:20.034Z,50.60
2018-07-09T05:32:48.555Z,50.60
2018-07-09T05:35:16.972Z,50.60
2018-07-09T05:37:45.364Z,50.70
2018-07-09T05:40:14.200Z,50.20
2018-07-09T05:42:42.671Z,50.40
2018-07-09T05:45:11.043Z,50.00
2018-07-09T05:47:39.898Z,50.20
2018-07-09T05:50:08.315Z,49.80
2018-07-09T05:52:36.730Z,49.80
2018-07-09T05:55:05.168Z,49.90
2018-07-09T05:57:33.628Z,49.60
2018-07-09T06:00:02.015Z,49.30
2018-07-09T06:02:30.417Z,49.50
2018-07-09T06:07:28.156Z,49.60
2018-07-09T06:09:56.640Z,48.90
2018-07-09T06:12:25.016Z,48.80
2018-07-09T06:14:53.702Z,48.80
2018-07-09T06:17:22.127Z,48.70
2018-07-09T06:19:50.527Z,48.30
2018-07-09T06:22:18.878Z,48.80
2018-07-09T06:24:47.292Z,48.30
2018-07-09T06:27:15.754Z,48.00
2018-07-09T06:29:44.155Z,46.90
2018-07-09T06:32:12.636Z,46.80
2018-07-09T06:34:40.997Z,46.90
2018-07-09T06:37:09.360Z,46.20
2018-07-09T06:39:37.766Z,46.10
2018-07-09T06:42:06.263Z,46.00
2018-07-09T06:44:34.660Z,44.90
2018-07-09T06:47:03.144Z,45.00
2018-07-09T06:49:31.511Z,45.10
2018-07-09T06:51:59.920Z,45.00
2018-07-09T06:54:28.253Z,44.70
2018-07-09T06:56:56.685Z,44.50
2018-07-09T06:59:25.213Z,44.60
2018-07-09T07:01:54.949Z,44.20
2018-07-09T07:04:23.754Z,44.40
2018-07-09T07:06:52.355Z,44.30
2018-07-09T07:09:21.099Z,43.80
2018-07-09T07:11:49.613Z,44.20
2018-07-09T07:14:18.058Z,44.00
2018-07-09T07:16:46.490Z,43.70
2018-07-09T07:19:14.937Z,43.60
2018-07-09T07:21:43.546Z,43.60
2018-07-09T07:24:11.998Z,43.00
2018-07-09T07:26:40.801Z,43.40
2018-07-09T07:29:09.312Z,43.20
2018-07-09T07:31:38.188Z,43.00
2018-07-09T07:34:06.667Z,42.90
2018-07-09T07:36:35.168Z,42.50
2018-07-09T07:39:04.588Z,42.50
2018-07-09T07:41:32.961Z,43.00
2018-07-09T07:44:01.652Z,42.90
2018-07-09T07:46:30.034Z,42.60
2018-07-09T07:48:58.483Z,42.20
2018-07-09T07:51:26.868Z,42.00
2018-07-09T07:53:55.271Z,41.20
2018-07-09T07:56:23.677Z,42.40
2018-07-09T07:58:52.158Z,42.70
2018-07-09T08:01:20.595Z,42.50
2018-07-09T08:03:49.030Z,41.70
2018-07-09T08:06:17.539Z,41.70
2018-07-09T08:08:46.204Z,41.60
2018-07-09T08:11:14.700Z,41.40
2018-07-09T08:13:43.214Z,41.40
2018-07-09T08:16:11.536Z,41.10
2018-07-09T08:18:40.011Z,41.50
2018-07-09T08:21:08.438Z,41.80
2018-07-09T08:26:04.948Z,42.50
2018-07-09T08:28:33.356Z,42.00
2018-07-09T08:31:01.850Z,42.00
2018-07-09T08:33:30.177Z,41.70
2018-07-09T08:35:58.545Z,41.40
2018-07-09T08:38:27.009Z,41.50
2018-07-09T08:40:55.334Z,41.50
2018-07-09T08:43:23.738Z,41.30
2018-07-09T08:45:52.279Z,41.00
2018-07-09T08:48:20.725Z,41.20
2018-07-09T08:50:49.145Z,40.30
2018-07-09T08:53:17.556Z,40.20
2018-07-09T08:55:45.931Z,40.10
2018-07-09T08:58:14.375Z,39.90
2018-07-09T09:00:42.777Z,40.20
2018-07-09T09:03:11.171Z,40.10
2018-07-09T09:05:39.572Z,40.00
2018-07-09T09:08:08.028Z,40.10
2018-07-09T09:10:36.431Z,39.60
2018-07-09T09:13:04.903Z,39.30
2018-07-09T09:15:33.340Z,39.50
2018-07-09T09:18:01.719Z,39.30
2018-07-09T09:20:30.152Z,39.10
2018-07-09T09:22:58.625Z,39.20
2018-07-09T09:25:27.319Z,39.30
2018-07-09T09:27:55.776Z,39.30
2018-07-09T09:30:24.122Z,39.00
2018-07-09T09:32:52.574Z,39.10
2018-07-09T09:35:21.031Z,38.80
2018-07-09T09:37:49.447Z,38.40
2018-07-09T09:40:17.886Z,38.90
2018-07-09T09:42:46.254Z,38.70
2018-07-09T09:45:14.673Z,38.90
2018-07-09T09:47:43.083Z,38.60
2018-07-09T09:50:11.504Z,37.80
2018-07-09T09:52:39.882Z,37.50
2018-07-09T09:55:08.502Z,37.30
2018-07-09T09:57:37.335Z,36.90
2018-07-09T10:00:06.055Z,36.20
2018-07-09T10:02:34.444Z,36.10
2018-07-09T10:05:02.894Z,35.80
2018-07-09T10:07:31.583Z,35.50
2018-07-09T10:09:59.944Z,35.50
2018-07-09T10:12:28.352Z,35.70
2018-07-09T10:14:56.765Z,34.90
2018-07-09T10:17:25.147Z,34.40
2018-07-09T10:19:53.583Z,34.20
2018-07-09T10:22:21.998Z,34.50
2018-07-09T10:24:50.381Z,34.30
2018-07-09T10:27:19.222Z,34.60
2018-07-09T10:29:47.626Z,34.60
2018-07-09T10:32:15.954Z,34.80
2018-07-09T10:34:44.536Z,33.40
2018-07-09T10:37:12.938Z,33.30
2018-07-09T10:39:41.338Z,32.80
2018-07-09T10:42:09.751Z,31.60
2018-07-09T10:44:38.172Z,31.60
2018-07-09T10:47:06.570Z,30.60
2018-07-09T10:49:35.551Z,30.40
2018-07-09T10:52:04.022Z,30.50
2018-07-09T10:54:32.490Z,30.20
2018-07-09T10:57:00.951Z,30.30
2018-07-09T10:59:29.403Z,29.70
2018-07-09T11:01:57.840Z,29.50
2018-07-09T11:04:26.210Z,29.10
2018-07-09T11:06:55.414Z,29.20
2018-07-09T11:09:23.779Z,28.80
2018-07-09T11:11:52.185Z,28.40
2018-07-09T11:14:20.779Z,27.40
2018-07-09T11:16:49.154Z,25.70
2018-07-09T11:19:18.102Z,26.20
2018-07-09T11:21:46.548Z,26.60
2018-07-09T11:24:14.970Z,27.30
2018-07-09T11:26:43.926Z,27.40
2018-07-09T11:29:12.316Z,26.80
2018-07-09T11:31:40.714Z,26.40
2018-07-09T11:34:09.094Z,25.60
2018-07-09T11:36:37.482Z,26.10
2018-07-09T11:39:06.309Z,26.40
2018-07-09T11:41:34.779Z,26.40
2018-07-09T11:44:03.202Z,26.60
2018-07-09T11:46:31.608Z,26.80
2018-07-09T11:48:59.984Z,26.80
2018-07-09T11:51:28.422Z,26.10
2018-07-09T11:53:56.808Z,26.10
2018-07-09T11:56:25.255Z,25.60
2018-07-09T11:58:53.890Z,25.20
2018-07-09T12:01:22.218Z,24.80
2018-07-09T12:03:50.706Z,23.70
2018-07-09T12:06:19.147Z,23.50
2018-07-09T12:08:47.518Z,23.20
2018-07-09T12:11:15.915Z,22.60
2018-07-09T12:13:44.379Z,22.30
2018-07-09T12:16:12.823Z,22.80
2018-07-09T12:18:41.183Z,22.70
2018-07-09T12:21:09.652Z,22.80
2018-07-09T12:23:38.006Z,22.70
2018-07-09T12:26:06.474Z,22.70
2018-07-09T12:28:34.865Z,22.40
2018-07-09T12:31:03.265Z,22.40
2018-07-09T12:33:31.635Z,22.40
2018-07-09T12:36:00.028Z,22.40
2018-07-09T12:38:28.431Z,22.10
2018-07-09T12:40:56.978Z,21.80
2018-07-09T12:43:25.329Z,20.90
2018-07-09T12:45:53.684Z,20.70
2018-07-09T12:48:22.058Z,20.60
2018-07-09T12:50:50.453Z,20.90
2018-07-09T12:53:18.871Z,20.40
2018-07-09T12:55:47.343Z,19.50
2018-07-09T12:58:15.758Z,19.40
2018-07-09T13:00:44.189Z,18.80
2018-07-09T13:03:12.553Z,18.80
2018-07-09T13:05:40.908Z,18.90
2018-07-09T13:08:09.376Z,18.80
2018-07-09T13:10:38.560Z,19.20
2018-07-09T13:13:07.069Z,19.30
2018-07-09T13:15:35.449Z,19.80
2018-07-09T13:18:04.015Z,20.70
2018-07-09T13:20:32.655Z,20.70
2018-07-09T13:23:01.007Z,20.50
2018-07-09T13:25:29.383Z,20.30
2018-07-09T13:27:58.090Z,19.80
2018-07-09T13:30:26.445Z,19.20
2018-07-09T13:32:54.894Z,18.80
2018-07-09T13:35:23.372Z,18.00
2018-07-09T13:37:51.915Z,18.10
2018-07-09T13:40:20.455Z,18.00
2018-07-09T13:42:48.891Z,16.90
2018-07-09T13:45:17.312Z,17.30
2018-07-09T13:47:45.746Z,17.80
2018-07-09T13:50:14.388Z,18.50
2018-07-09T13:52:42.889Z,18.20
2018-07-09T13:55:11.272Z,18.10
2018-07-09T13:57:39.729Z,17.90
2018-07-09T14:00:08.127Z,17.50
2018-07-09T14:02:36.531Z,18.30
2018-07-09T14:05:04.943Z,18.00
2018-07-09T14:07:34.075Z,17.80
2018-07-09T14:10:02.438Z,17.20
2018-07-09T14:12:30.850Z,16.80
2018-07-09T14:14:59.210Z,16.10
2018-07-09T14:17:27.783Z,15.20
2018-07-09T14:20:18.757Z,15.90
2018-07-09T14:22:47.158Z,16.30
2018-07-09T14:25:15.790Z,17.00
2018-07-09T14:27:44.259Z,17.80
2018-07-09T14:30:12.588Z,18.00
2018-07-09T14:32:41.242Z,17.40
2018-07-09T14:35:09.580Z,17.80
2018-07-09T14:37:37.990Z,17.20
2018-07-09T14:40:06.381Z,17.80
2018-07-09T14:42:34.905Z,18.70
2018-07-09T14:45:03.892Z,19.20
2018-07-09T14:47:32.354Z,19.90
2018-07-09T14:50:00.884Z,20.20
2018-07-09T14:52:29.737Z,20.50
2018-07-09T14:54:58.273Z,20.20
2018-07-09T14:57:27.111Z,19.30
2018-07-09T14:59:55.487Z,19.30
2018-07-09T15:02:24.541Z,19.20
2018-07-09T15:04:53.271Z,20.10
2018-07-09T15:07:22.452Z,20.20
2018-07-09T15:09:50.850Z,20.10
2018-07-09T15:12:19.382Z,18.60
2018-07-09T15:14:47.776Z,17.20
2018-07-09T15:17:16.153Z,15.60
2018-07-09T15:19:44.530Z,14.60
2018-07-09T15:22:12.887Z,13.50
2018-07-09T15:24:41.265Z,13.10
2018-07-09T15:27:09.695Z,13.30
2018-07-09T15:29:38.199Z,12.70
2018-07-09T15:32:16.207Z,12.40
2018-07-09T15:34:44.597Z,12.40
2018-07-09T15:37:12.951Z,12.20
2018-07-09T15:39:41.363Z,11.70
2018-07-09T15:42:09.775Z,11.50
2018-07-09T15:44:38.143Z,12.00
2018-07-09T15:47:06.725Z,12.80
2018-07-09T15:49:35.234Z,13.20
2018-07-09T15:52:03.647Z,12.90
2018-07-09T15:54:32.094Z,13.00
2018-07-09T15:57:00.938Z,13.40
2018-07-09T15:59:29.545Z,14.10
2018-07-09T16:01:57.907Z,14.10
2018-07-09T16:04:26.298Z,14.00
2018-07-09T16:06:54.691Z,13.50
2018-07-09T16:09:23.135Z,13.80
2018-07-09T16:11:51.489Z,14.10
2018-07-09T16:16:48.027Z,14.60
2018-07-09T16:19:16.397Z,14.40
2018-07-09T16:21:44.773Z,14.70
2018-07-09T16:24:13.223Z,14.40
2018-07-09T16:26:41.613Z,15.20
2018-07-09T16:29:10.131Z,15.90
2018-07-09T16:31:38.431Z,16.40
2018-07-09T16:36:35.649Z,18.30
2018-07-09T16:39:05.251Z,19.30
2018-07-09T16:41:34.054Z,20.20
2018-07-09T16:44:02.545Z,20.60
2018-07-09T16:46:32.038Z,20.50
2018-07-09T16:49:00.851Z,20.20
2018-07-09T16:51:29.236Z,19.20
2018-07-09T16:53:57.694Z,18.80
2018-07-09T16:56:26.036Z,18.40
2018-07-09T16:58:54.615Z,18.20
2018-07-09T17:01:23.026Z,18.10
2018-07-09T17:03:51.415Z,17.70
2018-07-09T17:06:19.941Z,17.80
2018-07-09T17:08:48.428Z,17.80
2018-07-09T17:11:16.815Z,17.70
2018-07-09T17:13:45.361Z,17.80
2018-07-09T17:16:13.906Z,18.60
2018-07-09T17:18:42.286Z,19.30
2018-07-09T17:21:10.675Z,19.40
2018-07-09T17:23:39.054Z,19.50
2018-07-09T17:26:07.532Z,19.50
2018-07-09T17:28:35.960Z,19.80
2018-07-09T17:33:32.566Z,20.90
2018-07-09T17:36:01.103Z,21.80
2018-07-09T17:38:29.611Z,22.70
2018-07-09T17:40:58.032Z,24.10
2018-07-09T17:43:26.453Z,24.80
2018-07-09T17:45:54.968Z,24.60
2018-07-09T17:48:23.334Z,25.10
2018-07-09T17:50:51.817Z,25.50
2018-07-09T17:53:20.204Z,25.80
2018-07-09T17:55:48.703Z,26.30
2018-07-09T17:58:17.182Z,27.30
2018-07-09T18:00:45.765Z,28.30
2018-07-09T18:03:14.143Z,28.90
2018-07-09T18:05:42.655Z,29.40
2018-07-09T18:08:11.070Z,29.50
2018-07-09T18:10:39.501Z,30.10
2018-07-09T18:13:08.021Z,29.80
2018-07-09T18:15:36.605Z,29.70
2018-07-09T18:18:04.978Z,29.90
2018-07-09T18:20:33.460Z,30.10
2018-07-09T18:23:01.872Z,30.60
2018-07-09T18:25:30.412Z,31.20
2018-07-09T18:27:58.733Z,31.50
2018-07-09T18:30:27.144Z,31.80
2018-07-09T18:32:55.567Z,31.90
2018-07-09T18:35:24.106Z,31.40
2018-07-09T18:37:52.718Z,31.10
2018-07-09T18:40:21.188Z,31.10
2018-07-09T18:42:49.584Z,31.10
2018-07-09T18:45:17.985Z,31.20
2018-07-09T18:47:46.341Z,31.70
2018-07-09T18:50:14.694Z,31.90
2018-07-09T18:52:43.091Z,31.90
2018-07-09T18:55:11.460Z,32.20
2018-07-09T18:57:39.894Z,32.80
2018-07-09T19:00:08.255Z,33.00
2018-07-09T19:02:36.682Z,33.50
2018-07-09T19:07:33.192Z,34.60
2018-07-09T19:10:01.600Z,35.40
2018-07-09T19:12:32.892Z,36.00
2018-07-09T19:15:01.313Z,36.50
2018-07-09T19:18:15.113Z,37.00
2018-07-09T19:21:24.121Z,37.30
2018-07-09T19:23:51.629Z,37.70
2018-07-09T19:26:18.942Z,38.30
2018-07-09T19:28:46.228Z,38.70
2018-07-09T19:31:13.558Z,39.00
2018-07-09T19:33:41.198Z,39.30
2018-07-09T19:36:08.713Z,39.60
2018-07-09T19:38:36.587Z,39.70
2018-07-09T19:41:03.948Z,40.00
2018-07-09T19:43:31.233Z,40.10
2018-07-09T19:45:58.834Z,40.30
2018-07-09T19:48:26.286Z,40.50
2018-07-09T19:50:53.602Z,40.50
2018-07-09T19:53:21.322Z,40.80
2018-07-09T19:55:48.615Z,40.90
2018-07-09T19:58:15.976Z,41.10
2018-07-09T20:00:43.538Z,41.20
2018-07-09T20:03:11.203Z,41.60
2018-07-09T20:49:19.479Z,42.00
2018-07-09T20:51:46.758Z,46.20
2018-07-09T20:54:14.104Z,46.50
2018-07-09T20:56:41.420Z,46.70
2018-07-09T20:59:08.838Z,46.80
2018-07-09T21:01:36.159Z,47.00
2018-07-09T21:04:08.896Z,47.20
2018-07-09T21:06:36.329Z,47.50
2018-07-09T21:09:04.373Z,47.70
2018-07-09T21:11:31.658Z,47.90
2018-07-09T21:13:59.803Z,48.10
2018-07-09T21:16:27.222Z,48.10
2018-07-09T21:18:54.564Z,48.60
2018-07-09T21:21:26.068Z,48.70
2018-07-09T21:23:53.664Z,48.90
2018-07-09T21:26:21.178Z,48.80
2018-07-09T21:28:48.479Z,48.80
2018-07-09T21:31:15.787Z,48.80
2018-07-09T21:33:43.397Z,49.70
2018-07-09T21:36:11.098Z,49.00
2018-07-09T21:38:38.541Z,49.20
2018-07-09T21:41:05.843Z,50.10
2018-07-09T21:43:33.175Z,49.50
2018-07-09T21:46:00.462Z,49.50
2018-07-09T21:48:29.782Z,49.40
2018-07-09T21:50:55.447Z,49.70
2018-07-09T21:53:23.905Z,49.50
2018-07-09T21:55:51.439Z,49.30
2018-07-09T21:58:18.720Z,49.40
2018-07-09T22:00:46.037Z,49.40
2018-07-09T22:03:13.310Z,49.50
2018-07-09T22:05:40.613Z,50.10
2018-07-09T22:08:08.041Z,49.60
2018-07-09T22:10:35.348Z,49.50
2018-07-09T22:13:02.636Z,49.60
2018-07-09T22:15:29.944Z,49.60
2018-07-09T22:17:57.249Z,49.80
2018-07-09T22:20:24.565Z,49.70
2018-07-09T22:22:51.874Z,49.70
2018-07-09T22:25:19.184Z,49.90
2018-07-09T22:27:46.452Z,50.00
2018-07-09T22:30:13.755Z,49.80
2018-07-09T22:32:42.118Z,50.20
2018-07-09T22:35:10.534Z,50.60
2018-07-09T22:37:38.871Z,50.80
2018-07-09T22:40:07.396Z,50.90
2018-07-09T22:45:03.836Z,51.20
2018-07-09T22:47:32.581Z,51.40
2018-07-09T22:50:01.002Z,51.60
2018-07-09T22:52:29.350Z,51.60
2018-07-09T22:55:08.968Z,51.70
2018-07-09T22:57:37.370Z,51.80
2018-07-09T23:00:05.776Z,51.80
2018-07-09T23:02:34.166Z,52.00
2018-07-09T23:05:02.569Z,52.00
2018-07-09T23:07:30.890Z,52.00
2018-07-09T23:12:43.658Z,52.10
2018-07-09T23:15:48.695Z,52.20
2018-07-09T23:18:28.388Z,52.90
2018-07-09T23:23:08.852Z,53.30
2018-07-09T23:25:36.220Z,53.70
2018-07-09T23:28:03.506Z,54.00
2018-07-09T23:30:30.792Z,54.30
2018-07-09T23:32:58.113Z,54.50
2018-07-09T23:35:25.386Z,54.90
2018-07-09T23:37:52.667Z,54.90
2018-07-09T23:40:19.956Z,55.00
2018-07-09T23:42:47.251Z,55.00
2018-07-09T23:45:14.517Z,55.20
2018-07-09T23:47:41.859Z,55.40
2018-07-09T23:50:09.135Z,55.50
2018-07-09T23:52:36.419Z,55.50
2018-07-09T23:55:03.717Z,56.40
2018-07-09T23:59:50.511Z,56.60
